Time;durP1;ratioP1;P1;durP2;ratioP2;P2;SDS_P1;SDS_P2;PMS_P1;PMS_P2;Temp;Humidity;BMP_temperature;BMP_pressure;BME280_temperature;BME280_humidity;BME280_pressure;Samples;Min_cycle;Max_cycle;Signal;HPM_P1;HPM_P2
2024/01/30 00:00:36;;;;;;;9.57;4.97;;;;;;;10.97;84.61;100422.34;5067561;28;20049;-53
2024/01/30 00:03:03;;;;;;;17.40;5.60;;;;;;;11.00;84.39;100430.16;5068431;28;20049;-56
2024/01/30 00:05:30;;;;;;;11.05;4.90;;;;;;;11.03;84.78;100424.97;5045934;28;20053;-55
2024/01/30 00:07:57;;;;;;;19.23;6.43;;;;;;;11.02;84.37;100425.81;5046336;28;20115;-58
2024/01/30 00:10:24;;;;;;;14.40;6.13;;;;;;;11.03;85.05;100430.16;5051755;28;20049;-56
2024/01/30 00:12:51;;;;;;;12.75;5.18;;;;;;;11.05;84.64;100425.81;5044241;28;20053;-55
2024/01/30 00:15:18;;;;;;;16.65;6.85;;;;;;;11.03;84.14;100412.00;5044597;28;20060;-54
2024/01/30 00:17:44;;;;;;;9.73;5.07;;;;;;;11.00;84.96;100401.63;5042950;28;20053;-55
2024/01/30 00:20:11;;;;;;;14.32;5.70;;;;;;;10.99;84.55;100399.03;5044652;28;20053;-53
2024/01/30 00:22:39;;;;;;;22.38;5.20;;;;;;;11.02;84.14;100394.72;5048820;28;20055;-59
2024/01/30 00:25:09;;;;;;;12.60;4.65;;;;;;;11.04;83.51;100400.78;5045979;28;20049;-56
2024/01/30 00:27:36;;;;;;;10.18;4.07;;;;;;;11.05;83.27;100389.53;5073539;28;20373;-56
2024/01/30 00:30:03;;;;;;;12.30;4.78;;;;;;;11.09;83.42;100394.72;5071186;28;20686;-54
2024/01/30 00:32:30;;;;;;;13.63;4.88;;;;;;;11.16;84.09;100399.06;5068487;28;20055;-56
2024/01/30 00:34:56;;;;;;;13.35;4.97;;;;;;;11.19;83.13;100401.66;5070391;28;20048;-53
2024/01/30 00:37:25;;;;;;;10.77;3.70;;;;;;;11.23;83.43;100407.69;5066302;28;20071;-56
2024/01/30 00:39:51;;;;;;;13.27;5.53;;;;;;;11.27;82.65;100410.28;5072069;28;20566;-55
2024/01/30 00:42:19;;;;;;;17.13;6.35;;;;;;;11.29;82.13;100405.97;5068770;28;20036;-51
2024/01/30 00:44:46;;;;;;;17.75;6.25;;;;;;;11.25;82.91;100395.59;5066029;28;20044;-50
2024/01/30 00:47:13;;;;;;;17.45;6.55;;;;;;;11.28;83.23;100401.63;5078707;28;20051;-58
2024/01/30 00:49:39;;;;;;;14.63;4.18;;;;;;;11.28;82.23;100400.81;5076275;28;20553;-58
2024/01/30 00:52:09;;;;;;;13.48;5.20;;;;;;;11.31;82.12;100406.84;5075447;28;20040;-54
2024/01/30 00:54:35;;;;;;;12.32;4.38;;;;;;;11.36;82.05;100405.97;5070600;28;21388;-57
2024/01/30 00:57:02;;;;;;;10.43;5.15;;;;;;;11.38;81.74;100404.25;5055444;28;20061;-52
2024/01/30 00:59:29;;;;;;;10.35;4.07;;;;;;;11.37;82.81;100405.09;5063274;28;20068;-58
2024/01/30 01:01:56;;;;;;;15.98;4.97;;;;;;;11.37;82.24;100399.91;5071518;28;20056;-56
2024/01/30 01:04:24;;;;;;;8.60;3.33;;;;;;;11.36;81.81;100396.47;5071629;28;20061;-55
2024/01/30 01:06:50;;;;;;;15.73;4.47;;;;;;;11.35;82.91;100397.31;5072807;28;20492;-53
2024/01/30 01:09:18;;;;;;;7.75;2.85;;;;;;;11.36;81.60;100395.59;5058226;28;20506;-53
2024/01/30 01:11:45;;;;;;;6.50;2.15;;;;;;;11.34;82.58;100393.00;5062531;28;20465;-55
2024/01/30 01:14:13;;;;;;;10.77;3.10;;;;;;;11.33;81.51;100409.44;5067412;28;20177;-54
2024/01/30 01:16:41;;;;;;;7.78;2.17;;;;;;;11.37;81.33;100413.75;5072038;28;20079;-57
2024/01/30 01:19:08;;;;;;;5.22;1.83;;;;;;;11.37;80.73;100415.47;5063209;28;20156;-51
2024/01/30 01:21:36;;;;;;;3.67;1.23;;;;;;;11.38;81.54;100412.03;5074454;28;20080;-56
2024/01/30 01:24:04;;;;;;;5.18;1.73;;;;;;;11.34;80.44;100405.13;5068464;28;20044;-51
2024/01/30 01:26:32;;;;;;;3.72;0.82;;;;;;;11.35;80.63;100406.84;5063409;28;20094;-53
2024/01/30 01:28:59;;;;;;;2.50;0.50;;;;;;;11.31;80.00;100406.84;5072205;28;20075;-54
2024/01/30 01:31:29;;;;;;;2.15;0.98;;;;;;;11.30;79.84;100405.13;5067451;28;20072;-59
2024/01/30 01:33:57;;;;;;;1.80;0.77;;;;;;;11.19;79.62;100406.84;5079877;28;20105;-55
2024/01/30 01:36:24;;;;;;;5.47;0.50;;;;;;;11.26;80.47;100413.75;5066288;28;20052;-56
2024/01/30 01:38:52;;;;;;;1.95;1.23;;;;;;;11.26;79.99;100416.34;5072127;28;20044;-51
2024/01/30 01:41:19;;;;;;;1.63;0.93;;;;;;;11.23;80.52;100407.69;5074662;28;20134;-57
2024/01/30 01:43:47;;;;;;;2.25;0.88;;;;;;;11.20;80.70;100405.97;5068118;28;20067;-56
2024/01/30 01:46:17;;;;;;;0.22;0.22;;;;;;;11.18;79.63;100405.97;5065485;28;20063;-58
2024/01/30 01:48:46;;;;;;;5.88;1.52;;;;;;;11.15;79.69;100405.09;5071170;28;20127;-56
2024/01/30 01:51:15;;;;;;;0.77;0.55;;;;;;;11.08;79.89;100403.38;5068175;28;20063;-56
2024/01/30 01:53:43;;;;;;;1.48;1.17;;;;;;;11.05;80.28;100415.44;5069485;28;20095;-51
2024/01/30 01:56:10;;;;;;;2.33;0.52;;;;;;;11.08;80.14;100404.22;5069345;28;20054;-51
2024/01/30 01:58:37;;;;;;;1.15;1.05;;;;;;;11.08;80.16;100408.56;5069028;28;20048;-56
2024/01/30 02:01:04;;;;;;;1.85;0.75;;;;;;;11.08;80.02;100408.56;5063980;28;20049;-53
2024/01/30 02:03:31;;;;;;;0.82;0.55;;;;;;;11.05;79.27;100410.28;5065513;28;20044;-56
2024/01/30 02:05:58;;;;;;;2.30;0.40;;;;;;;10.98;80.39;100410.28;5076766;28;20048;-54
2024/01/30 02:08:26;;;;;;;1.25;0.55;;;;;;;10.99;79.91;100425.84;5065540;28;20056;-55
2024/01/30 02:10:54;;;;;;;1.00;1.00;;;;;;;10.97;79.79;100417.16;5067951;28;20048;-55
2024/01/30 02:13:22;;;;;;;1.33;0.38;;;;;;;10.99;80.38;100415.47;5065314;28;20052;-50
2024/01/30 02:15:51;;;;;;;1.60;1.02;;;;;;;11.00;79.28;100414.59;5068402;28;20291;-53
2024/01/30 02:18:21;;;;;;;2.47;1.05;;;;;;;10.95;79.39;100411.13;5073346;28;20044;-53
2024/01/30 02:20:48;;;;;;;2.08;0.93;;;;;;;10.96;79.43;100410.28;5059137;28;20049;-52
2024/01/30 02:23:16;;;;;;;0.60;0.55;;;;;;;10.91;79.81;100414.59;5055680;28;20052;-52
2024/01/30 02:25:44;;;;;;;2.10;1.15;;;;;;;10.89;80.08;100408.53;5045750;28;20060;-54
2024/01/30 02:28:12;;;;;;;1.33;1.08;;;;;;;10.90;79.44;100415.44;5048714;28;20498;-50
2024/01/30 02:30:41;;;;;;;1.08;0.77;;;;;;;10.91;79.95;100418.03;5074699;28;20080;-51
2024/01/30 02:33:07;;;;;;;0.77;0.77;;;;;;;10.88;80.14;100422.34;5065873;28;20120;-50
2024/01/30 02:35:35;;;;;;;0.93;0.73;;;;;;;10.90;79.93;100423.19;5068445;28;20055;-53
2024/01/30 02:38:01;;;;;;;1.83;0.38;;;;;;;10.90;80.05;100425.78;5063394;28;20523;-55
2024/01/30 02:40:30;;;;;;;1.25;0.95;;;;;;;10.90;79.92;100420.59;5061771;28;20059;-53
2024/01/30 02:42:59;;;;;;;1.63;0.85;;;;;;;10.87;80.07;100421.47;5048549;28;20052;-52
2024/01/30 02:45:26;;;;;;;0.95;0.90;;;;;;;10.86;79.64;100413.69;5052323;28;20136;-51
2024/01/30 02:47:52;;;;;;;0.63;0.63;;;;;;;10.83;79.68;100424.06;5052125;28;20068;-53
2024/01/30 02:50:19;;;;;;;1.67;0.82;;;;;;;10.83;80.56;100418.88;5048619;28;20053;-50
2024/01/30 02:52:46;;;;;;;1.45;1.08;;;;;;;10.83;79.28;100418.88;5057155;28;20045;-54
2024/01/30 02:55:13;;;;;;;0.85;0.85;;;;;;;10.78;79.28;100411.94;5069233;28;20044;-49
2024/01/30 02:57:39;;;;;;;0.65;0.50;;;;;;;10.76;79.80;100426.66;5062830;28;20110;-55
2024/01/30 03:00:09;;;;;;;0.75;0.75;;;;;;;10.77;80.45;100419.72;5069883;28;20047;-54
2024/01/30 03:02:36;;;;;;;2.40;1.17;;;;;;;10.75;79.61;100414.56;5064808;28;20052;-48
2024/01/30 03:05:04;;;;;;;2.78;0.95;;;;;;;10.73;80.42;100413.69;5073120;28;20051;-54
2024/01/30 03:07:31;;;;;;;2.75;0.88;;;;;;;10.70;79.25;100412.81;5069234;28;20518;-49
2024/01/30 03:09:58;;;;;;;1.27;0.85;;;;;;;10.67;80.04;100409.34;5066938;28;20057;-53
2024/01/30 03:12:25;;;;;;;2.63;0.82;;;;;;;10.65;80.32;100411.09;5065418;28;20048;-50
2024/01/30 03:14:52;;;;;;;6.05;1.20;;;;;;;10.61;80.41;100422.25;5070315;28;20102;-49
2024/01/30 03:17:19;;;;;;;1.30;0.90;;;;;;;10.62;79.51;100423.13;5067732;28;20490;-54
2024/01/30 03:19:45;;;;;;;3.70;0.90;;;;;;;10.62;80.68;100415.38;5075241;28;20049;-50
2024/01/30 03:22:12;;;;;;;2.58;0.98;;;;;;;10.59;80.31;100420.53;5069823;28;20066;-55
2024/01/30 03:24:39;;;;;;;3.17;0.40;;;;;;;10.56;80.42;100417.94;5068763;28;20483;-54
2024/01/30 03:27:06;;;;;;;1.95;0.80;;;;;;;10.54;79.93;100423.97;5067637;28;20102;-53
2024/01/30 03:29:33;;;;;;;0.90;0.85;;;;;;;10.51;80.82;100418.78;5069007;28;20138;-50
2024/01/30 03:31:59;;;;;;;0.88;0.57;;;;;;;10.51;80.15;100416.19;5071864;28;20056;-56
2024/01/30 03:34:26;;;;;;;0.82;0.77;;;;;;;10.48;79.93;100413.63;5070576;28;20052;-56
2024/01/30 03:36:53;;;;;;;1.42;0.90;;;;;;;10.48;80.54;100413.63;5074815;28;20056;-51
2024/01/30 03:39:20;;;;;;;2.25;0.68;;;;;;;10.47;80.50;100417.03;5068374;28;20094;-54
2024/01/30 03:41:46;;;;;;;1.17;1.08;;;;;;;10.47;79.88;100422.22;5062327;28;20048;-55
2024/01/30 03:44:13;;;;;;;1.08;0.73;;;;;;;10.45;80.10;100420.50;5065581;28;20044;-55
2024/01/30 03:46:41;;;;;;;1.52;0.70;;;;;;;10.44;80.12;100419.63;5067796;28;22128;-55
2024/01/30 03:49:07;;;;;;;1.27;1.15;;;;;;;10.44;80.56;100417.03;5070446;28;20127;-51
2024/01/30 03:51:37;;;;;;;1.67;1.33;;;;;;;10.40;81.02;100415.25;5074346;28;20075;-57
2024/01/30 03:54:05;;;;;;;2.42;0.98;;;;;;;10.41;80.65;100429.94;5066885;28;20072;-53
2024/01/30 03:56:32;;;;;;;1.63;1.02;;;;;;;10.39;80.55;100435.13;5072458;28;20048;-55
2024/01/30 03:59:00;;;;;;;1.33;1.23;;;;;;;10.37;80.75;100430.81;5071303;28;20054;-53
2024/01/30 04:01:27;;;;;;;1.33;0.93;;;;;;;10.36;80.80;100429.91;5057841;28;20067;-54
2024/01/30 04:03:54;;;;;;;0.73;0.60;;;;;;;10.36;80.61;100439.41;5058822;28;20829;-53
2024/01/30 04:06:20;;;;;;;0.95;0.40;;;;;;;10.35;80.65;100442.84;5065128;28;20052;-57
2024/01/30 04:08:47;;;;;;;1.02;0.63;;;;;;;10.32;81.45;100443.72;5064722;28;20051;-56
2024/01/30 04:11:14;;;;;;;1.77;0.60;;;;;;;10.32;81.08;100448.00;5068371;28;20417;-55
2024/01/30 04:13:43;;;;;;;1.00;0.77;;;;;;;10.31;81.23;100441.13;5067580;28;20045;-54
2024/01/30 04:16:20;;;;;;;0.88;0.52;;;;;;;10.29;80.97;100444.56;5062719;28;20057;-54
2024/01/30 04:18:47;;;;;;;1.45;1.35;;;;;;;10.26;81.13;100449.72;5043149;28;20072;-53
2024/01/30 04:21:13;;;;;;;0.43;0.35;;;;;;;10.25;81.30;100447.13;5064964;28;20098;-57
2024/01/30 04:23:41;;;;;;;1.02;0.95;;;;;;;10.26;81.21;100448.84;5064096;28;20051;-55
2024/01/30 04:26:08;;;;;;;0.75;0.60;;;;;;;10.22;81.76;100455.75;5066472;28;20056;-55
2024/01/30 04:28:34;;;;;;;0.90;0.90;;;;;;;10.23;81.13;100457.47;5066077;28;20061;-54
2024/01/30 04:31:01;;;;;;;0.70;0.57;;;;;;;10.22;82.06;100454.88;5068193;28;20043;-55
2024/01/30 04:33:28;;;;;;;1.73;0.63;;;;;;;10.21;81.82;100466.97;5062056;28;20048;-57
2024/01/30 04:35:56;;;;;;;0.68;0.45;;;;;;;10.23;82.18;100469.56;5065109;28;20044;-59
2024/01/30 04:38:23;;;;;;;0.77;0.57;;;;;;;10.23;82.33;100500.63;5060040;28;20052;-58
2024/01/30 04:40:50;;;;;;;0.88;0.65;;;;;;;10.18;81.90;100508.38;5066355;28;20062;-58
2024/01/30 04:43:19;;;;;;;1.10;0.55;;;;;;;10.08;80.66;100503.97;5062681;28;20048;-53
2024/01/30 04:45:47;;;;;;;2.22;1.65;;;;;;;9.97;80.72;100509.94;5066891;28;20068;-50
2024/01/30 04:48:14;;;;;;;1.95;1.25;;;;;;;9.81;80.38;100513.28;5068814;28;20127;-55
2024/01/30 04:50:40;;;;;;;2.17;1.58;;;;;;;9.69;80.02;100520.06;5066519;28;20072;-55
2024/01/30 04:53:07;;;;;;;3.25;1.50;;;;;;;9.58;80.17;100527.75;5064786;28;20524;-52
2024/01/30 04:55:35;;;;;;;2.60;2.40;;;;;;;9.38;79.77;100535.31;5063446;28;20113;-51
2024/01/30 04:58:02;;;;;;;2.85;1.40;;;;;;;9.29;79.94;100540.41;5074362;28;20048;-52
2024/01/30 05:00:29;;;;;;;3.15;1.75;;;;;;;9.13;79.89;100537.66;5066096;28;20052;-56
2024/01/30 05:02:56;;;;;;;1.88;1.08;;;;;;;9.16;79.78;100540.28;5065329;28;20048;-54
2024/01/30 05:05:22;;;;;;;2.83;1.95;;;;;;;9.05;79.94;100544.44;5071425;28;20084;-57
2024/01/30 05:07:49;;;;;;;3.63;1.70;;;;;;;9.06;80.05;100548.75;5053979;28;20140;-53
2024/01/30 05:10:16;;;;;;;2.80;1.50;;;;;;;8.99;79.56;100558.16;5066704;28;20044;-55
2024/01/30 05:12:42;;;;;;;1.88;1.13;;;;;;;8.91;80.29;100558.06;5068832;28;20045;-53
2024/01/30 05:15:09;;;;;;;2.70;1.48;;;;;;;8.93;79.96;100560.66;5065454;28;20049;-53
2024/01/30 05:17:36;;;;;;;2.13;1.88;;;;;;;8.79;80.24;100581.16;5065046;28;20044;-54
2024/01/30 05:20:04;;;;;;;2.00;1.10;;;;;;;8.84;80.65;100579.47;5065540;28;20524;-52
2024/01/30 05:22:31;;;;;;;5.47;1.88;;;;;;;8.84;80.25;100587.22;5068839;28;20052;-55
2024/01/30 05:24:58;;;;;;;1.95;1.10;;;;;;;8.72;80.94;100591.38;5072739;28;20048;-55
2024/01/30 05:27:25;;;;;;;1.92;1.13;;;;;;;8.61;80.26;100600.69;5064677;28;20074;-55
2024/01/30 05:29:51;;;;;;;2.88;2.00;;;;;;;8.61;79.89;100603.28;5069745;28;20056;-54
2024/01/30 05:32:18;;;;;;;1.88;1.20;;;;;;;8.61;79.83;100605.84;5068832;28;20044;-49
2024/01/30 05:34:46;;;;;;;2.47;1.17;;;;;;;8.59;79.39;100610.16;5061691;28;20126;-55
2024/01/30 05:37:16;;;;;;;2.60;1.58;;;;;;;8.46;79.36;100609.94;5073536;28;20051;-53
2024/01/30 05:39:43;;;;;;;2.63;2.03;;;;;;;8.47;79.29;100616.84;5067099;28;20055;-55
2024/01/30 05:42:10;;;;;;;2.20;1.58;;;;;;;8.48;79.25;100631.47;5059548;28;20049;-57
2024/01/30 05:44:37;;;;;;;2.10;0.88;;;;;;;8.37;79.71;100630.44;5070192;28;20458;-55
2024/01/30 05:47:03;;;;;;;2.45;1.58;;;;;;;8.40;79.70;100638.22;5068750;28;20051;-53
2024/01/30 05:49:30;;;;;;;2.47;1.50;;;;;;;8.38;79.72;100639.94;5070108;28;20056;-54
2024/01/30 05:51:56;;;;;;;2.88;1.13;;;;;;;8.31;79.84;100641.53;5070902;28;20044;-50
2024/01/30 05:54:23;;;;;;;2.83;1.65;;;;;;;8.38;79.41;100646.81;5077400;28;20047;-51
2024/01/30 05:56:50;;;;;;;3.20;2.03;;;;;;;8.38;79.73;100652.84;5071310;28;20046;-53
2024/01/30 05:59:17;;;;;;;2.35;1.25;;;;;;;8.29;79.46;100653.56;5068453;28;20405;-56
2024/01/30 06:01:47;;;;;;;4.25;1.95;;;;;;;8.37;79.26;100666.56;5067535;28;20052;-55
2024/01/30 06:04:14;;;;;;;2.40;1.20;;;;;;;8.33;79.53;100668.25;5075881;28;20094;-53
2024/01/30 06:06:41;;;;;;;1.77;1.48;;;;;;;8.20;79.18;100674.91;5071782;28;20130;-56
2024/01/30 06:09:09;;;;;;;2.40;2.20;;;;;;;8.21;79.63;100686.97;5073023;28;20052;-51
2024/01/30 06:11:36;;;;;;;1.38;1.08;;;;;;;8.11;78.61;100685.09;5069501;28;20044;-51
2024/01/30 06:14:03;;;;;;;1.58;1.05;;;;;;;8.02;79.12;100690.06;5073569;28;20501;-54
2024/01/30 06:16:29;;;;;;;1.60;1.30;;;;;;;7.86;77.98;100694.09;5073690;28;20046;-54
2024/01/30 06:18:56;;;;;;;1.42;0.75;;;;;;;7.92;78.45;100707.97;5076664;28;20056;-52
2024/01/30 06:21:23;;;;;;;1.05;0.77;;;;;;;7.76;78.56;100714.53;5076157;28;20056;-56
2024/01/30 06:23:50;;;;;;;2.63;0.98;;;;;;;7.84;78.63;100722.44;5067171;28;20607;-55
2024/01/30 06:26:17;;;;;;;2.20;1.05;;;;;;;7.74;77.69;100728.22;5076025;28;20516;-53
2024/01/30 06:28:44;;;;;;;2.92;1.63;;;;;;;7.79;78.25;100724.03;5075578;28;20044;-53
2024/01/30 06:31:11;;;;;;;1.25;0.63;;;;;;;7.73;78.42;100740.25;5071398;28;20405;-54
2024/01/30 06:33:37;;;;;;;3.00;1.23;;;;;;;7.65;78.56;100742.69;5071652;28;20174;-51
2024/01/30 06:36:04;;;;;;;2.78;2.03;;;;;;;7.61;78.01;100743.47;5070432;28;20134;-54
2024/01/30 06:38:31;;;;;;;2.17;1.38;;;;;;;7.58;78.42;100751.13;5057024;28;20052;-54
2024/01/30 06:40:57;;;;;;;3.42;1.20;;;;;;;7.43;78.76;100747.38;5066514;28;20040;-53
2024/01/30 06:43:24;;;;;;;2.33;1.23;;;;;;;7.50;77.69;100765.56;5073227;28;20048;-56
2024/01/30 06:45:51;;;;;;;1.90;1.20;;;;;;;7.42;77.88;100776.56;5071261;28;20043;-54
2024/01/30 06:48:18;;;;;;;1.80;0.93;;;;;;;7.44;77.32;100780.03;5067939;28;20051;-54
2024/01/30 06:50:46;;;;;;;2.00;1.38;;;;;;;7.45;77.60;100776.66;5070171;28;20044;-53
2024/01/30 06:53:12;;;;;;;1.15;0.80;;;;;;;7.40;78.68;100779.97;5074889;28;20044;-53
2024/01/30 06:55:39;;;;;;;3.35;1.60;;;;;;;7.40;78.27;100785.13;5070961;28;20048;-51
2024/01/30 06:58:06;;;;;;;2.17;1.33;;;;;;;7.35;78.82;100795.31;5073129;28;20053;-53
2024/01/30 07:00:32;;;;;;;3.67;1.52;;;;;;;7.33;78.13;100792.69;5074484;28;20102;-53
2024/01/30 07:02:59;;;;;;;1.90;0.75;;;;;;;7.25;78.40;100809.69;5064084;28;20051;-53
2024/01/30 07:05:27;;;;;;;3.88;1.45;;;;;;;7.32;77.40;100813.28;5058966;28;20056;-55
2024/01/30 07:07:54;;;;;;;1.95;1.15;;;;;;;7.28;77.91;100808.88;5071681;28;20052;-52
2024/01/30 07:10:21;;;;;;;2.03;1.00;;;;;;;7.31;77.42;100819.28;5064240;28;20429;-53
2024/01/30 07:12:48;;;;;;;2.53;1.17;;;;;;;7.20;78.26;100811.31;5070292;28;20129;-55
2024/01/30 07:15:18;;;;;;;1.30;0.57;;;;;;;6.98;77.48;100815.03;5072200;28;20040;-53
2024/01/30 07:17:44;;;;;;;1.85;1.00;;;;;;;7.06;78.14;100818.72;5064846;28;20755;-50
2024/01/30 07:20:11;;;;;;;1.38;0.88;;;;;;;7.08;77.85;100819.59;5069296;28;20048;-52
2024/01/30 07:22:43;;;;;;;1.65;1.20;;;;;;;7.06;77.54;100831.59;5073207;28;20048;-52
2024/01/30 07:25:10;;;;;;;1.70;0.82;;;;;;;6.99;79.15;100833.13;5068490;28;20489;-54
2024/01/30 07:27:37;;;;;;;1.13;0.85;;;;;;;7.02;77.71;100833.19;5070945;28;20044;-57
2024/01/30 07:30:05;;;;;;;1.38;1.05;;;;;;;6.91;77.61;100845.81;5064107;28;20053;-57
2024/01/30 07:32:32;;;;;;;1.83;1.00;;;;;;;7.01;77.19;100861.50;5067449;28;20048;-54
2024/01/30 07:34:59;;;;;;;5.35;1.20;;;;;;;7.02;78.02;100852.91;5069763;28;20051;-55
2024/01/30 07:37:34;;;;;;;0.95;0.82;;;;;;;6.82;78.54;100864.47;5065659;28;20503;-51
2024/01/30 07:40:02;;;;;;;2.38;0.73;;;;;;;6.91;77.46;100875.84;5070714;28;20051;-55
2024/01/30 07:42:31;;;;;;;4.55;1.13;;;;;;;6.97;78.03;100881.16;5067963;28;20045;-55
2024/01/30 07:44:58;;;;;;;3.35;1.40;;;;;;;7.00;78.26;100890.66;5065766;28;20127;-54
2024/01/30 07:47:24;;;;;;;1.40;0.70;;;;;;;7.00;77.00;100900.97;5059717;28;20129;-56
2024/01/30 07:49:51;;;;;;;1.10;0.93;;;;;;;6.85;78.81;100897.16;5068380;28;20099;-50
2024/01/30 07:52:18;;;;;;;4.63;1.67;;;;;;;6.90;78.25;100905.91;5063104;28;21867;-48
2024/01/30 07:54:45;;;;;;;0.95;0.77;;;;;;;6.72;77.99;100906.25;5059675;28;20052;-54
2024/01/30 07:57:12;;;;;;;2.10;0.77;;;;;;;6.77;78.36;100903.81;5060951;28;20497;-56
2024/01/30 07:59:38;;;;;;;2.00;1.15;;;;;;;6.82;77.68;100917.66;5058014;28;20058;-51
2024/01/30 08:02:08;;;;;;;1.25;0.65;;;;;;;6.85;76.92;100917.75;5057433;28;20053;-51
2024/01/30 08:04:37;;;;;;;1.83;0.68;;;;;;;6.82;76.77;100933.13;5068443;28;20060;-48
2024/01/30 08:07:04;;;;;;;1.55;0.90;;;;;;;6.87;77.25;100934.13;5060671;28;20437;-55
2024/01/30 08:09:31;;;;;;;1.88;1.40;;;;;;;6.89;77.76;100944.47;5063130;28;20552;-53
2024/01/30 08:11:57;;;;;;;3.10;0.95;;;;;;;6.83;77.65;100955.50;5067962;28;20039;-55
2024/01/30 08:14:25;;;;;;;1.42;0.65;;;;;;;6.88;76.85;100964.19;5063459;28;20429;-56
2024/01/30 08:16:52;;;;;;;1.15;0.77;;;;;;;6.83;77.07;100960.63;5062133;28;20421;-52
2024/01/30 08:19:22;;;;;;;1.48;0.88;;;;;;;6.79;77.47;100958.81;5063046;28;20048;-56
2024/01/30 08:21:49;;;;;;;1.27;0.63;;;;;;;6.78;77.70;100968.22;5058238;28;20054;-55
2024/01/30 08:24:16;;;;;;;3.10;1.33;;;;;;;6.85;77.46;100983.84;5063029;28;20040;-51
2024/01/30 08:26:43;;;;;;;2.10;1.35;;;;;;;6.81;78.07;100980.31;5058569;28;20052;-58
2024/01/30 08:29:09;;;;;;;1.88;1.00;;;;;;;6.82;77.38;100994.91;5064954;28;20041;-53
2024/01/30 08:31:38;;;;;;;1.98;0.95;;;;;;;6.79;76.44;100994.88;5063430;28;20468;-50
2024/01/30 08:34:05;;;;;;;3.78;0.95;;;;;;;6.79;77.15;101000.00;5064899;28;20052;-56
2024/01/30 08:36:32;;;;;;;2.42;1.13;;;;;;;6.76;76.67;101005.06;5058617;28;20045;-54
2024/01/30 08:38:59;;;;;;;6.85;1.55;;;;;;;6.79;77.25;101012.88;5064979;28;20139;-56
2024/01/30 08:41:30;;;;;;;2.58;1.00;;;;;;;6.75;77.01;101016.19;5062380;28;20079;-56
2024/01/30 08:43:57;;;;;;;2.03;1.08;;;;;;;6.82;77.28;101023.25;5055147;28;20076;-54
2024/01/30 08:46:24;;;;;;;2.75;0.95;;;;;;;6.85;76.58;101032.78;5048219;28;20120;-56
2024/01/30 08:48:50;;;;;;;1.08;0.70;;;;;;;6.78;77.60;101037.75;5057491;28;20608;-55
2024/01/30 08:51:17;;;;;;;1.63;0.93;;;;;;;6.86;76.51;101045.69;5043677;28;20551;-56
2024/01/30 08:53:45;;;;;;;2.30;1.83;;;;;;;6.88;76.61;101049.19;5039820;28;20054;-53
2024/01/30 08:56:13;;;;;;;2.80;1.60;;;;;;;6.85;78.20;101050.81;5047340;28;20098;-55
2024/01/30 08:58:40;;;;;;;2.72;1.40;;;;;;;6.79;77.72;101051.50;5048513;28;20446;-57
2024/01/30 09:01:07;;;;;;;2.55;1.33;;;;;;;6.86;76.79;101058.56;5066215;28;20052;-56
2024/01/30 09:03:34;;;;;;;1.73;1.08;;;;;;;6.83;78.20;101063.66;5061517;28;20055;-52
2024/01/30 09:06:00;;;;;;;1.13;0.82;;;;;;;6.78;78.26;101071.22;5057331;28;23852;-54
2024/01/30 09:08:27;;;;;;;1.92;1.40;;;;;;;6.61;77.59;101065.56;5059276;28;20040;-53
2024/01/30 09:10:54;;;;;;;1.73;1.58;;;;;;;6.67;78.09;101081.22;5062705;28;20053;-56
2024/01/30 09:13:23;;;;;;;5.00;0.88;;;;;;;6.69;78.25;101082.13;5059370;28;20217;-54
2024/01/30 09:15:49;;;;;;;2.88;0.95;;;;;;;6.77;76.88;101089.19;5059872;28;20589;-54
2024/01/30 09:18:16;;;;;;;5.40;2.20;;;;;;;6.81;76.54;101099.66;5043570;28;20055;-52
2024/01/30 09:20:45;;;;;;;2.13;1.63;;;;;;;6.78;77.33;101096.09;5039566;28;20122;-52
2024/01/30 09:23:11;;;;;;;0.98;0.60;;;;;;;6.68;77.26;101105.25;5054306;28;20415;-52
2024/01/30 09:25:38;;;;;;;1.77;1.05;;;;;;;6.69;77.24;101107.00;5066059;28;20055;-57
2024/01/30 09:28:05;;;;;;;3.90;1.45;;;;;;;6.73;78.26;101116.56;5047141;28;20417;-56
2024/01/30 09:30:32;;;;;;;0.98;0.73;;;;;;;6.69;77.60;101113.00;5060130;28;20066;-53
2024/01/30 09:32:59;;;;;;;1.85;1.02;;;;;;;6.72;78.26;101121.69;5064702;28;20048;-53
2024/01/30 09:35:26;;;;;;;4.85;1.05;;;;;;;6.76;77.35;101137.25;5060883;28;20119;-52
2024/01/30 09:37:57;;;;;;;2.20;1.05;;;;;;;6.72;78.40;101139.69;5061070;28;20439;-54
2024/01/30 09:40:24;;;;;;;0.77;0.60;;;;;;;6.60;78.19;101138.50;5063325;28;20059;-50
2024/01/30 09:42:51;;;;;;;1.27;1.00;;;;;;;6.68;77.76;101144.75;5066636;28;20043;-55
2024/01/30 09:45:20;;;;;;;3.53;1.15;;;;;;;6.64;77.17;101154.91;5061554;28;20091;-50
2024/01/30 09:47:48;;;;;;;2.80;0.95;;;;;;;6.62;76.79;101146.25;5062423;28;20048;-52
2024/01/30 09:50:17;;;;;;;2.13;0.93;;;;;;;6.62;78.18;101152.28;5061983;28;20098;-53
2024/01/30 09:52:45;;;;;;;2.35;0.55;;;;;;;6.66;77.72;101159.25;5059712;28;20059;-53
2024/01/30 09:55:12;;;;;;;0.88;0.47;;;;;;;6.60;77.04;101161.66;5060464;28;20071;-50
2024/01/30 09:57:39;;;;;;;2.25;1.45;;;;;;;6.66;77.06;101169.56;5064605;28;20131;-49
2024/01/30 10:00:08;;;;;;;2.50;1.00;;;;;;;6.67;77.76;101166.19;5059359;28;20102;-54
2024/01/30 10:02:36;;;;;;;2.08;0.63;;;;;;;6.68;77.42;101162.78;5065192;28;20413;-57
2024/01/30 10:05:03;;;;;;;2.75;1.25;;;;;;;6.68;76.76;101174.75;5070940;28;20072;-51
2024/01/30 10:07:31;;;;;;;2.97;1.17;;;;;;;6.68;77.73;101187.63;5062508;28;20048;-57
2024/01/30 10:09:58;;;;;;;3.00;0.95;;;;;;;6.67;76.89;101197.06;5066074;28;20048;-52
2024/01/30 10:12:26;;;;;;;2.95;0.93;;;;;;;6.64;77.61;101196.09;5063081;28;20449;-54
2024/01/30 10:14:56;;;;;;;5.60;0.85;;;;;;;6.75;77.24;101199.88;5065063;28;20390;-52
2024/01/30 10:17:25;;;;;;;1.70;1.05;;;;;;;6.76;78.03;101191.31;5060754;28;20143;-51
2024/01/30 10:19:59;;;;;;;2.83;1.13;;;;;;;6.79;76.87;101206.88;5064767;28;20413;-58
2024/01/30 10:22:27;;;;;;;2.70;1.00;;;;;;;6.74;77.22;101208.44;5065346;28;20070;-54
2024/01/30 10:24:56;;;;;;;1.38;1.05;;;;;;;6.69;78.15;101216.00;5070550;28;20079;-55
2024/01/30 10:27:26;;;;;;;1.77;0.70;;;;;;;6.71;77.46;101228.94;5060552;28;20080;-53
2024/01/30 10:29:53;;;;;;;2.15;1.75;;;;;;;6.71;76.97;101233.19;5067813;28;20113;-54
2024/01/30 10:32:21;;;;;;;4.30;1.10;;;;;;;6.76;76.80;101237.66;5061135;28;20048;-54
2024/01/30 10:34:48;;;;;;;4.90;1.30;;;;;;;6.80;76.87;101233.50;5065070;28;20049;-55
2024/01/30 10:37:18;;;;;;;3.95;1.20;;;;;;;6.86;78.23;101245.72;5064065;28;20049;-55
2024/01/30 10:39:46;;;;;;;5.22;1.20;;;;;;;6.87;77.33;101250.91;5061064;28;20049;-51
2024/01/30 10:42:15;;;;;;;4.20;2.25;;;;;;;6.88;77.33;101252.66;5063607;28;20055;-55
2024/01/30 10:47:27;;;;;;;5.45;4.10;;;;;;;6.84;76.81;101266.25;5054939;27;20409;-51
2024/01/30 10:49:55;;;;;;;10.00;5.47;;;;;;;6.88;76.48;101278.41;5025204;28;20145;-53
2024/01/30 10:52:25;;;;;;;10.20;4.57;;;;;;;6.89;76.51;101290.44;5037635;28;20056;-50
2024/01/30 10:54:53;;;;;;;;;;;;;;;6.82;78.02;101283.34;5042174;28;20508;-53
2024/01/30 10:57:25;;;;;;;6.45;3.33;;;;;;;6.91;77.43;101295.66;5018488;28;19929;-54
2024/01/30 10:59:56;;;;;;;10.85;4.57;;;;;;;6.98;77.84;101299.28;5022811;28;20049;-55
2024/01/30 11:02:25;;;;;;;9.50;4.70;;;;;;;7.00;78.02;101295.09;5027028;28;20049;-48
2024/01/30 11:04:57;;;;;;;7.03;4.80;;;;;;;6.96;77.71;101301.84;5034750;28;20729;-54
2024/01/30 11:07:28;;;;;;;4.40;3.45;;;;;;;7.01;76.38;101312.28;5018021;28;20776;-53
2024/01/30 11:10:03;;;;;;;5.88;4.40;;;;;;;7.03;77.88;101319.22;5035754;28;20060;-53
2024/01/30 11:12:33;;;;;;;3.97;3.47;;;;;;;6.99;77.73;101324.25;5035216;28;20077;-54
2024/01/30 11:15:05;;;;;;;6.43;4.60;;;;;;;6.98;76.08;101320.78;5036681;28;20472;-53
2024/01/30 11:22:55;;;;;;;3.08;1.95;;;;;;;7.07;77.60;101333.97;5026977;27;20399;-52
2024/01/30 11:25:23;;;;;;;3.83;1.92;;;;;;;7.07;77.35;101331.38;4994576;28;20058;-55
2024/01/30 11:27:53;;;;;;;2.28;1.85;;;;;;;7.07;77.43;101346.00;5009151;28;20053;-55
2024/01/30 11:35:47;;;;;;;4.60;2.75;;;;;;;7.24;77.03;101348.22;5025321;28;20451;-53
2024/01/30 11:38:15;;;;;;;3.47;2.35;;;;;;;7.28;76.79;101347.50;5000775;28;20546;-60
2024/01/30 11:40:47;;;;;;;4.00;2.53;;;;;;;7.36;77.91;101351.19;4994780;28;20050;-54
2024/01/30 11:43:14;;;;;;;3.65;1.70;;;;;;;7.45;77.41;101359.22;5000568;28;20050;-52